Time;durP1;ratioP1;P1;durP2;ratioP2;P2;SDS_P1;SDS_P2;PMS_P1;PMS_P2;Temp;Humidity;BMP_temperature;BMP_pressure;BME280_temperature;BME280_humidity;BME280_pressure;Samples;Min_cycle;Max_cycle;Signal;HPM_P1;HPM_P2
2023/03/01 00:00:11;;;;;;;;;;;1.60;95.60;;;;;;5088351;28;19912;-73
2023/03/01 00:02:36;;;;;;;;;;;1.50;95.60;;;;;;5087669;28;20531;-73
2023/03/01 00:05:02;;;;;;;;;;;1.50;95.60;;;;;;5088593;28;19909;-73
2023/03/01 00:07:27;;;;;;;;;;;1.50;95.50;;;;;;5088274;28;20623;-74
2023/03/01 00:09:53;;;;;;;;;;;1.60;95.50;;;;;;5089387;28;19924;-73
2023/03/01 00:12:19;;;;;;;;;;;1.50;95.50;;;;;;5088604;28;20369;-73
2023/03/01 00:14:45;;;;;;;;;;;1.50;95.50;;;;;;5088605;28;19919;-73
2023/03/01 00:17:10;;;;;;;;;;;1.50;95.50;;;;;;5088517;28;20639;-73
2023/03/01 00:19:36;;;;;;;;;;;1.40;95.50;;;;;;5103601;28;19916;-73
2023/03/01 00:22:01;;;;;;;;;;;1.40;95.50;;;;;;5108327;28;19912;-73
2023/03/01 00:24:27;;;;;;;;;;;1.50;95.50;;;;;;5108097;28;19968;-72
2023/03/01 00:26:55;;;;;;;;;;;1.40;95.50;;;;;;5108594;28;19941;-74
2023/03/01 00:29:21;;;;;;;;;;;1.40;95.50;;;;;;5091380;28;20375;-73
2023/03/01 00:31:46;;;;;;;;;;;1.40;95.50;;;;;;5088322;28;19955;-73
2023/03/01 00:34:12;;;;;;;;;;;1.40;95.50;;;;;;5087947;28;19951;-73
2023/03/01 00:36:37;;;;;;;;;;;1.40;95.50;;;;;;5087609;28;20022;-73
2023/03/01 00:39:04;;;;;;;;;;;1.40;95.50;;;;;;5087906;28;20387;-74
2023/03/01 00:41:30;;;;;;;;;;;1.40;95.50;;;;;;5100394;28;19912;-74
2023/03/01 00:43:55;;;;;;;;;;;1.40;95.50;;;;;;5089875;28;20014;-73
2023/03/01 00:46:25;;;;;;;;;;;1.30;95.50;;;;;;5088223;28;19956;-73
2023/03/01 00:48:50;;;;;;;;;;;1.30;95.40;;;;;;5097025;28;19943;-73
2023/03/01 00:51:20;;;;;;;;;;;1.30;95.50;;;;;;5107894;28;19950;-73
2023/03/01 00:53:46;;;;;;;;;;;1.30;95.50;;;;;;5106687;28;19966;-73
2023/03/01 00:56:12;;;;;;;;;;;1.30;95.50;;;;;;5102744;28;19919;-73
2023/03/01 00:58:38;;;;;;;;;;;1.30;95.50;;;;;;5085853;28;19927;-73
2023/03/01 01:01:16;;;;;;;;;;;1.30;95.50;;;;;;5087297;28;19908;-73
2023/03/01 01:03:53;;;;;;;;;;;1.30;95.50;;;;;;5085945;28;20000;-73
2023/03/01 01:06:21;;;;;;;;;;;1.30;95.50;;;;;;5086180;28;19922;-73
2023/03/01 01:08:47;;;;;;;;;;;1.20;95.40;;;;;;5067894;28;19915;-73
2023/03/01 01:11:13;;;;;;;;;;;1.20;95.40;;;;;;5067247;28;19917;-73
2023/03/01 01:13:39;;;;;;;;;;;1.20;95.40;;;;;;5087786;28;19934;-74
2023/03/01 01:16:05;;;;;;;;;;;1.20;95.40;;;;;;5087377;28;19916;-73
2023/03/01 01:18:30;;;;;;;;;;;1.20;95.40;;;;;;5093666;28;20703;-73
2023/03/01 01:20:56;;;;;;;;;;;1.20;95.40;;;;;;5102693;28;19916;-72
2023/03/01 01:23:21;;;;;;;;;;;1.20;95.40;;;;;;5087170;28;19912;-73
2023/03/01 01:25:47;;;;;;;;;;;1.20;95.40;;;;;;5087620;28;19999;-73
2023/03/01 01:28:12;;;;;;;;;;;1.20;95.40;;;;;;5095070;28;20026;-73
2023/03/01 01:30:38;;;;;;;;;;;1.20;95.40;;;;;;5107497;28;19912;-73
2023/03/01 01:33:03;;;;;;;;;;;1.20;95.40;;;;;;5107583;28;19954;-73
2023/03/01 01:35:28;;;;;;;;;;;1.20;95.40;;;;;;5091051;28;19912;-73
2023/03/01 01:37:54;;;;;;;;;;;1.20;95.40;;;;;;5085591;28;20004;-72
2023/03/01 01:40:19;;;;;;;;;;;1.10;95.60;;;;;;5085128;28;19912;-73
2023/03/01 01:42:45;;;;;;;;;;;1.10;95.30;;;;;;5086999;28;19912;-73
2023/03/01 01:45:29;;;;;;;;;;;1.10;95.40;;;;;;5088369;28;19920;-73
2023/03/01 01:47:56;;;;;;;;;;;1.10;95.40;;;;;;5088215;28;20703;-73
2023/03/01 01:50:22;;;;;;;;;;;1.10;95.40;;;;;;5107443;28;20387;-73
2023/03/01 01:52:50;;;;;;;;;;;1.10;95.30;;;;;;5107245;28;19912;-73
2023/03/01 01:55:18;;;;;;;;;;;1.10;95.30;;;;;;5107515;28;19912;-73
2023/03/01 01:58:04;;;;;;;;;;;1.10;95.40;;;;;;5103583;28;19916;-73
2023/03/01 02:00:30;;;;;;;;;;;1.00;95.30;;;;;;5117294;28;19916;-72
2023/03/01 02:03:04;;;;;;;;;;;1.00;95.30;;;;;;5086705;28;20359;-73
2023/03/01 02:05:48;;;;;;;;;;;1.00;95.30;;;;;;5086489;28;20317;-73
2023/03/01 02:08:16;;;;;;;;;;;1.00;95.30;;;;;;5071984;28;19912;-73
2023/03/01 02:10:41;;;;;;;;;;;1.00;95.30;;;;;;5066733;28;19935;-72
2023/03/01 02:13:07;;;;;;;;;;;1.00;95.30;;;;;;5066843;28;20659;-73
2023/03/01 02:15:33;;;;;;;;;;;1.00;95.30;;;;;;5072269;28;20730;-73
2023/03/01 02:17:59;;;;;;;;;;;1.00;95.30;;;;;;5088514;28;19920;-72
2023/03/01 02:20:43;;;;;;;;;;;1.00;95.30;;;;;;5105925;28;19934;-73
2023/03/01 02:23:09;;;;;;;;;;;1.00;95.20;;;;;;5107073;28;20361;-73
2023/03/01 02:25:37;;;;;;;;;;;0.90;95.20;;;;;;5108517;28;19912;-73
2023/03/01 02:28:29;;;;;;;;;;;0.90;95.20;;;;;;5104130;28;20010;-73
2023/03/01 02:33:39;;;;;;;;;;;0.90;95.30;;;;;;5091142;28;19932;-73
2023/03/01 02:36:07;;;;;;;;;;;0.90;95.30;;;;;;5089679;28;20023;-72
2023/03/01 02:38:33;;;;;;;;;;;0.90;95.20;;;;;;5090023;28;19920;-72
2023/03/01 02:40:59;;;;;;;;;;;0.90;95.20;;;;;;5089915;28;19912;-73
2023/03/01 02:43:27;;;;;;;;;;;0.90;95.20;;;;;;5090259;28;19918;-73
2023/03/01 02:45:53;;;;;;;;;;;0.90;95.20;;;;;;5090653;28;19912;-73
2023/03/01 02:48:19;;;;;;;;;;;0.90;95.20;;;;;;5095399;28;20433;-72
2023/03/01 02:51:03;;;;;;;;;;;0.90;95.20;;;;;;5093768;28;20335;-73
2023/03/01 02:53:43;;;;;;;;;;;0.80;95.20;;;;;;5090184;28;19935;-72
2023/03/01 02:56:12;;;;;;;;;;;0.90;95.20;;;;;;5088666;28;19912;-73
2023/03/01 02:58:45;;;;;;;;;;;0.80;95.20;;;;;;5089741;28;19916;-72
2023/03/01 03:01:15;;;;;;;;;;;0.80;95.20;;;;;;5088512;28;19989;-73
2023/03/01 03:03:41;;;;;;;;;;;0.80;95.20;;;;;;5090998;28;19923;-73
2023/03/01 03:06:06;;;;;;;;;;;0.80;95.20;;;;;;5089623;28;19908;-73
2023/03/01 03:08:32;;;;;;;;;;;0.80;95.20;;;;;;5072448;28;20018;-72
2023/03/01 03:10:57;;;;;;;;;;;0.80;95.20;;;;;;5069240;28;19935;-73
2023/03/01 03:13:28;;;;;;;;;;;0.80;95.20;;;;;;5069439;28;20364;-73
2023/03/01 03:15:56;;;;;;;;;;;0.80;95.20;;;;;;5069485;28;19919;-73
2023/03/01 03:18:25;;;;;;;;;;;0.70;95.20;;;;;;5088599;28;20260;-73
2023/03/01 03:20:52;;;;;;;;;;;0.70;95.20;;;;;;5104264;28;19913;-73
2023/03/01 03:23:19;;;;;;;;;;;0.70;95.10;;;;;;5089521;28;19919;-73
2023/03/01 03:25:44;;;;;;;;;;;0.70;95.10;;;;;;5089839;28;19912;-73
2023/03/01 03:28:10;;;;;;;;;;;0.70;95.20;;;;;;5088307;28;20249;-72
2023/03/01 03:30:38;;;;;;;;;;;0.70;95.10;;;;;;5087961;28;19959;-72
2023/03/01 03:33:05;;;;;;;;;;;0.70;95.10;;;;;;5089840;28;20314;-72
2023/03/01 03:35:32;;;;;;;;;;;0.70;95.10;;;;;;5092937;28;20007;-72
2023/03/01 03:38:01;;;;;;;;;;;0.70;95.10;;;;;;5088771;28;19989;-73
2023/03/01 03:40:29;;;;;;;;;;;0.70;95.10;;;;;;5089282;28;19934;-73
2023/03/01 03:42:54;;;;;;;;;;;0.60;95.10;;;;;;5095917;28;20356;-73
2023/03/01 03:45:20;;;;;;;;;;;0.70;95.00;;;;;;5109101;28;19922;-73
2023/03/01 03:47:45;;;;;;;;;;;0.70;95.10;;;;;;5109583;28;19966;-73
2023/03/01 03:50:12;;;;;;;;;;;0.60;95.10;;;;;;5108264;28;19939;-73
2023/03/01 03:52:38;;;;;;;;;;;0.60;95.10;;;;;;5109490;28;19911;-73
2023/03/01 03:55:09;;;;;;;;;;;0.60;95.10;;;;;;5108671;28;19964;-73
2023/03/01 03:57:35;;;;;;;;;;;0.60;95.10;;;;;;5106070;28;19914;-73
2023/03/01 04:00:00;;;;;;;;;;;0.60;95.10;;;;;;5087483;28;19912;-72
2023/03/01 04:02:26;;;;;;;;;;;0.60;95.10;;;;;;5087677;28;19927;-73
2023/03/01 04:04:51;;;;;;;;;;;0.60;95.10;;;;;;5088365;28;19938;-72
2023/03/01 04:07:17;;;;;;;;;;;0.60;95.10;;;;;;5088180;28;19915;-73
2023/03/01 04:09:42;;;;;;;;;;;0.50;95.10;;;;;;5108765;28;19920;-72
2023/03/01 04:12:08;;;;;;;;;;;0.50;95.00;;;;;;5108803;28;20006;-73
2023/03/01 04:14:34;;;;;;;;;;;0.50;95.00;;;;;;5109071;28;19907;-73
2023/03/01 04:16:59;;;;;;;;;;;0.50;95.00;;;;;;5108817;28;20415;-72
2023/03/01 04:19:26;;;;;;;;;;;0.50;95.00;;;;;;5108581;28;19916;-73
2023/03/01 04:21:52;;;;;;;;;;;0.50;95.00;;;;;;5108316;28;19916;-72
2023/03/01 04:24:18;;;;;;;;;;;0.50;95.10;;;;;;5108740;28;20471;-72
2023/03/01 04:26:43;;;;;;;;;;;0.50;95.00;;;;;;5108755;28;19916;-72
2023/03/01 04:29:09;;;;;;;;;;;0.50;95.00;;;;;;5092763;28;19936;-73
2023/03/01 04:31:34;;;;;;;;;;;0.50;95.00;;;;;;5088134;28;19908;-73
2023/03/01 04:34:00;;;;;;;;;;;0.50;95.00;;;;;;5084905;28;19954;-73
2023/03/01 04:36:26;;;;;;;;;;;0.40;95.00;;;;;;5087810;28;20535;-73
2023/03/01 04:38:52;;;;;;;;;;;0.50;95.00;;;;;;5086614;28;20388;-73
2023/03/01 04:41:18;;;;;;;;;;;0.50;95.00;;;;;;5077655;28;19916;-73
2023/03/01 04:43:44;;;;;;;;;;;0.40;95.00;;;;;;5085802;28;19966;-73
2023/03/01 04:46:12;;;;;;;;;;;0.40;94.90;;;;;;5087810;28;19920;-73
2023/03/01 04:48:38;;;;;;;;;;;0.40;94.90;;;;;;5095519;28;19951;-73
2023/03/01 04:51:04;;;;;;;;;;;0.40;94.90;;;;;;5107829;28;19923;-73
2023/03/01 04:53:30;;;;;;;;;;;0.40;95.20;;;;;;5107779;28;20368;-72
2023/03/01 04:55:56;;;;;;;;;;;0.40;95.00;;;;;;5106438;28;19908;-72
2023/03/01 04:58:25;;;;;;;;;;;0.40;95.00;;;;;;5099082;28;20307;-74
2023/03/01 05:00:51;;;;;;;;;;;0.40;94.90;;;;;;5077601;28;19919;-72
2023/03/01 05:03:18;;;;;;;;;;;0.30;94.90;;;;;;5105678;28;19915;-73
2023/03/01 05:05:44;;;;;;;;;;;0.40;94.90;;;;;;5107725;28;19912;-73
2023/03/01 05:08:17;;;;;;;;;;;0.30;94.90;;;;;;5107933;28;19925;-73
2023/03/01 05:10:46;;;;;;;;;;;0.40;94.90;;;;;;5107559;28;19987;-73
2023/03/01 05:13:13;;;;;;;;;;;0.30;94.90;;;;;;5107703;28;19999;-73
2023/03/01 05:15:38;;;;;;;;;;;0.30;94.90;;;;;;5099712;28;19923;-73
2023/03/01 05:18:07;;;;;;;;;;;0.30;94.90;;;;;;5089312;28;19916;-73
2023/03/01 05:20:32;;;;;;;;;;;0.30;94.80;;;;;;5107484;28;20329;-73
2023/03/01 05:22:59;;;;;;;;;;;0.30;94.80;;;;;;5107494;28;19911;-72
2023/03/01 05:25:24;;;;;;;;;;;0.30;94.90;;;;;;5107853;28;19908;-73
2023/03/01 05:27:50;;;;;;;;;;;0.30;94.90;;;;;;5102834;28;19919;-72
2023/03/01 05:30:17;;;;;;;;;;;0.30;94.90;;;;;;5091234;28;19931;-73
2023/03/01 05:32:43;;;;;;;;;;;0.30;94.90;;;;;;5087202;28;19927;-73
2023/03/01 05:35:13;;;;;;;;;;;0.20;94.90;;;;;;5086727;28;19916;-73
2023/03/01 05:37:48;;;;;;;;;;;0.20;94.90;;;;;;5086622;28;19919;-73
2023/03/01 05:40:18;;;;;;;;;;;0.20;94.90;;;;;;5086767;28;19916;-73
2023/03/01 05:43:04;;;;;;;;;;;0.20;94.90;;;;;;5094087;28;19915;-73
2023/03/01 05:45:32;;;;;;;;;;;0.20;94.90;;;;;;5105860;28;19919;-73
2023/03/01 05:47:57;;;;;;;;;;;0.20;94.80;;;;;;5106562;28;19915;-73
2023/03/01 05:50:25;;;;;;;;;;;0.20;94.90;;;;;;5096698;28;19927;-73
2023/03/01 05:52:51;;;;;;;;;;;0.20;94.80;;;;;;5093695;28;19912;-72
2023/03/01 05:55:18;;;;;;;;;;;0.20;94.80;;;;;;5093327;28;19962;-72
2023/03/01 05:57:43;;;;;;;;;;;0.20;94.80;;;;;;5094861;28;20678;-73
2023/03/01 06:00:09;;;;;;;;;;;0.20;94.80;;;;;;5094277;28;19916;-73
2023/03/01 06:02:35;;;;;;;;;;;0.20;94.80;;;;;;5099221;28;20619;-73
2023/03/01 06:05:00;;;;;;;;;;;0.20;94.80;;;;;;5099979;28;19922;-73
2023/03/01 06:07:26;;;;;;;;;;;0.10;94.80;;;;;;5098389;28;19912;-73
2023/03/01 06:09:51;;;;;;;;;;;0.10;94.80;;;;;;5102485;28;19916;-72
2023/03/01 06:12:17;;;;;;;;;;;0.10;94.80;;;;;;5089398;28;19908;-73
2023/03/01 06:14:42;;;;;;;;;;;0.10;94.80;;;;;;5089470;28;19916;-73
2023/03/01 06:17:08;;;;;;;;;;;0.10;94.80;;;;;;5099059;28;19916;-72
2023/03/01 06:19:33;;;;;;;;;;;0.10;94.80;;;;;;5103370;28;20352;-73
2023/03/01 06:21:59;;;;;;;;;;;0.10;94.80;;;;;;5106619;28;19911;-73
2023/03/01 06:24:24;;;;;;;;;;;0.10;94.80;;;;;;5108991;28;20049;-73
2023/03/01 06:26:50;;;;;;;;;;;0.10;94.80;;;;;;5095796;28;20520;-72
2023/03/01 06:29:15;;;;;;;;;;;0.10;94.80;;;;;;5086082;28;19986;-73
2023/03/01 06:31:41;;;;;;;;;;;0.10;94.80;;;;;;5086103;28;19920;-72
2023/03/01 06:34:06;;;;;;;;;;;0.10;94.80;;;;;;5083561;28;19959;-75
2023/03/01 06:36:32;;;;;;;;;;;0.10;94.80;;;;;;5085404;28;19908;-75
2023/03/01 06:38:57;;;;;;;;;;;0.10;94.80;;;;;;5089249;28;19916;-75
2023/03/01 06:41:23;;;;;;;;;;;0.10;94.70;;;;;;5088638;28;20357;-74
2023/03/01 06:43:48;;;;;;;;;;;0.10;94.80;;;;;;5089368;28;20038;-75
2023/03/01 06:46:14;;;;;;;;;;;0.10;94.70;;;;;;5090531;28;20045;-75
2023/03/01 06:48:39;;;;;;;;;;;0.10;94.80;;;;;;5107159;28;19915;-74
2023/03/01 06:51:05;;;;;;;;;;;0.10;94.70;;;;;;5109372;28;19912;-74
2023/03/01 06:53:30;;;;;;;;;;;0.10;94.70;;;;;;5102923;28;19912;-75
2023/03/01 06:55:56;;;;;;;;;;;0.00;94.70;;;;;;5087424;28;20427;-75
2023/03/01 06:58:22;;;;;;;;;;;0.10;94.70;;;;;;5083023;28;19916;-75
2023/03/01 07:00:47;;;;;;;;;;;0.10;94.70;;;;;;5088778;28;20033;-75
2023/03/01 07:03:13;;;;;;;;;;;0.10;94.70;;;;;;5109442;28;19916;-75
2023/03/01 07:05:39;;;;;;;;;;;0.10;94.70;;;;;;5110269;28;19919;-75
2023/03/01 07:08:04;;;;;;;;;;;0.10;94.80;;;;;;5110233;28;20117;-74
2023/03/01 07:10:30;;;;;;;;;;;0.10;95.00;;;;;;5108463;28;19931;-75
2023/03/01 07:12:58;;;;;;;;;;;0.10;94.70;;;;;;5109924;28;20736;-74
2023/03/01 07:15:24;;;;;;;;;;;0.10;94.70;;;;;;5102217;28;20006;-75
2023/03/01 07:17:50;;;;;;;;;;;0.10;94.70;;;;;;5089842;28;20435;-75
2023/03/01 07:20:16;;;;;;;;;;;0.10;94.70;;;;;;5105556;28;19912;-75
2023/03/01 07:22:42;;;;;;;;;;;0.10;94.70;;;;;;5088055;28;19991;-75
2023/03/01 07:25:08;;;;;;;;;;;0.10;94.70;;;;;;5089572;28;20038;-75
2023/03/01 07:27:33;;;;;;;;;;;0.10;94.70;;;;;;5089441;28;20019;-75
2023/03/01 07:29:59;;;;;;;;;;;0.10;94.70;;;;;;5105183;28;19951;-75
2023/03/01 07:32:24;;;;;;;;;;;0.10;94.70;;;;;;5109752;28;20079;-76
2023/03/01 07:34:51;;;;;;;;;;;0.10;94.70;;;;;;5098837;28;19912;-74
2023/03/01 07:37:16;;;;;;;;;;;0.10;94.70;;;;;;5088005;28;19965;-75
2023/03/01 07:39:42;;;;;;;;;;;0.20;94.70;;;;;;5089035;28;19916;-75
2023/03/01 07:42:07;;;;;;;;;;;0.20;94.70;;;;;;5093173;28;20436;-75
2023/03/01 07:44:34;;;;;;;;;;;0.20;94.70;;;;;;5109673;28;19916;-75
2023/03/01 07:47:00;;;;;;;;;;;0.20;94.70;;;;;;5109615;28;19915;-75
2023/03/01 07:49:26;;;;;;;;;;;0.20;94.70;;;;;;5109358;28;19912;-74
2023/03/01 07:51:52;;;;;;;;;;;0.20;94.70;;;;;;5108185;28;20352;-75
2023/03/01 07:54:17;;;;;;;;;;;0.20;94.60;;;;;;5109418;28;19907;-75
2023/03/01 07:56:43;;;;;;;;;;;0.20;94.70;;;;;;5108616;28;20325;-75
2023/03/01 07:59:09;;;;;;;;;;;0.30;94.70;;;;;;5091447;28;19920;-75
2023/03/01 08:01:34;;;;;;;;;;;0.30;94.70;;;;;;5113224;27;19912;-75
2023/03/01 08:04:01;;;;;;;;;;;0.30;94.70;;;;;;5088038;28;19919;-75
2023/03/01 08:06:27;;;;;;;;;;;0.30;94.60;;;;;;5088036;28;19959;-75
2023/03/01 08:08:55;;;;;;;;;;;0.30;94.70;;;;;;5089875;28;19936;-75
2023/03/01 08:11:21;;;;;;;;;;;0.40;94.60;;;;;;5101758;28;20392;-75
2023/03/01 08:13:47;;;;;;;;;;;0.40;94.60;;;;;;5088644;28;19912;-75
2023/03/01 08:16:14;;;;;;;;;;;0.40;94.60;;;;;;5088731;28;20161;-75
2023/03/01 08:18:40;;;;;;;;;;;0.40;94.60;;;;;;5095902;28;19964;-75
2023/03/01 08:21:06;;;;;;;;;;;0.40;94.60;;;;;;5108657;28;19917;-75
2023/03/01 08:23:32;;;;;;;;;;;0.40;94.60;;;;;;5107418;28;19937;-75
2023/03/01 08:26:24;;;;;;;;;;;0.50;94.60;;;;;;5108729;28;19911;-76
2023/03/01 08:28:50;;;;;;;;;;;0.50;94.60;;;;;;5092870;28;19916;-75
2023/03/01 08:31:20;;;;;;;;;;;0.50;94.60;;;;;;5088054;28;19918;-75
2023/03/01 08:33:54;;;;;;;;;;;0.60;94.60;;;;;;5086777;28;20280;-75
2023/03/01 08:36:20;;;;;;;;;;;0.60;94.50;;;;;;5088213;28;19959;-76
2023/03/01 08:38:46;;;;;;;;;;;0.60;94.50;;;;;;5087994;28;19916;-76
2023/03/01 08:41:11;;;;;;;;;;;0.70;94.50;;;;;;5086796;28;19912;-76
2023/03/01 08:43:37;;;;;;;;;;;0.60;94.50;;;;;;5083301;28;19908;-75
2023/03/01 08:46:03;;;;;;;;;;;0.70;94.60;;;;;;5087916;28;20327;-76
2023/03/01 08:48:28;;;;;;;;;;;0.70;94.60;;;;;;5085246;28;19912;-75
2023/03/01 08:50:54;;;;;;;;;;;0.80;94.70;;;;;;5098169;28;19923;-76
2023/03/01 08:53:20;;;;;;;;;;;0.80;94.60;;;;;;5108298;28;19915;-76
2023/03/01 08:55:45;;;;;;;;;;;0.90;94.50;;;;;;5108403;28;20657;-76
2023/03/01 08:58:11;;;;;;;;;;;0.90;94.40;;;;;;5100836;28;19916;-76
2023/03/01 09:00:36;;;;;;;;;;;0.90;94.40;;;;;;5087814;28;19912;-76
2023/03/01 09:03:02;;;;;;;;;;;1.00;94.40;;;;;;5086688;28;20548;-75
2023/03/01 09:05:27;;;;;;;;;;;1.00;94.40;;;;;;5108544;28;19953;-75
2023/03/01 09:07:53;;;;;;;;;;;1.00;94.40;;;;;;5108105;28;19916;-75
2023/03/01 09:10:18;;;;;;;;;;;1.10;94.40;;;;;;5107958;28;19908;-76
2023/03/01 09:12:44;;;;;;;;;;;1.10;94.40;;;;;;5108067;28;20296;-75
2023/03/01 09:15:09;;;;;;;;;;;1.20;94.40;;;;;;5106602;28;19937;-76
2023/03/01 09:17:35;;;;;;;;;;;1.20;94.30;;;;;;5097904;28;19920;-75
2023/03/01 09:20:00;;;;;;;;;;;1.20;94.40;;;;;;5107539;28;20280;-76
2023/03/01 09:22:26;;;;;;;;;;;1.30;94.30;;;;;;5107625;28;19912;-76
2023/03/01 09:24:51;;;;;;;;;;;1.30;94.50;;;;;;5106358;28;19908;-75
2023/03/01 09:27:18;;;;;;;;;;;1.30;94.30;;;;;;5107835;28;19919;-76
2023/03/01 09:29:44;;;;;;;;;;;1.30;94.30;;;;;;5065686;28;19965;-75
2023/03/01 09:32:10;;;;;;;;;;;1.40;94.40;;;;;;5067258;28;19921;-76
2023/03/01 09:35:00;;;;;;;;;;;1.40;94.30;;;;;;5085226;28;19916;-76
2023/03/01 09:37:23;;;;;;;;;;;1.40;94.30;;;;;;5090997;28;20372;-75
2023/03/01 09:39:49;;;;;;;;;;;1.50;94.30;;;;;;5091154;28;19916;-76
2023/03/01 09:42:15;;;;;;;;;;;1.50;94.40;;;;;;5089696;28;19963;-75
2023/03/01 09:44:49;;;;;;;;;;;1.50;94.40;;;;;;5091740;28;19943;-76
2023/03/01 09:47:19;;;;;;;;;;;1.50;94.40;;;;;;5091827;28;20424;-76
2023/03/01 09:49:48;;;;;;;;;;;1.50;94.40;;;;;;5092240;28;19919;-75
2023/03/01 09:52:32;;;;;;;;;;;1.50;94.40;;;;;;5091334;28;19916;-75
2023/03/01 09:54:58;;;;;;;;;;;1.60;94.50;;;;;;5091573;28;19961;-76
2023/03/01 09:57:29;;;;;;;;;;;1.60;94.40;;;;;;5091482;28;19916;-76
2023/03/01 09:59:58;;;;;;;;;;;1.60;94.40;;;;;;5091185;28;19916;-76
2023/03/01 10:02:30;;;;;;;;;;;1.60;94.30;;;;;;5091140;28;19923;-76
2023/03/01 10:05:05;;;;;;;;;;;1.60;94.30;;;;;;5089981;28;19908;-76
2023/03/01 10:07:36;;;;;;;;;;;1.70;94.40;;;;;;5109270;28;19919;-75
2023/03/01 10:10:04;;;;;;;;;;;1.60;94.40;;;;;;5111567;28;20044;-74
2023/03/01 10:12:36;;;;;;;;;;;1.70;94.50;;;;;;5111485;27;19998;-74
2023/03/01 10:15:12;;;;;;;;;;;1.60;94.50;;;;;;5111298;28;19999;-74
2023/03/01 10:17:46;;;;;;;;;;;1.70;94.50;;;;;;5111103;28;20515;-73
2023/03/01 10:20:12;;;;;;;;;;;1.70;94.80;;;;;;5098146;28;19916;-73
2023/03/01 10:22:37;;;;;;;;;;;1.70;94.60;;;;;;5103972;28;19919;-74
2023/03/01 10:25:03;;;;;;;;;;;1.70;94.60;;;;;;5111044;28;19912;-74
2023/03/01 10:27:50;;;;;;;;;;;1.70;94.60;;;;;;5109357;28;20052;-74
2023/03/01 10:30:34;;;;;;;;;;;1.70;94.60;;;;;;5090290;28;19947;-74
2023/03/01 10:32:59;;;;;;;;;;;1.70;94.60;;;;;;5091060;28;19919;-74
2023/03/01 10:35:26;;;;;;;;;;;1.80;94.70;;;;;;5085034;28;19912;-74
2023/03/01 10:38:02;;;;;;;;;;;1.80;94.70;;;;;;5091317;28;19922;-74
2023/03/01 10:40:27;;;;;;;;;;;1.80;94.70;;;;;;5090348;28;19959;-73
2023/03/01 10:42:53;;;;;;;;;;;1.80;94.70;;;;;;5090352;28;20617;-74
2023/03/01 10:45:18;;;;;;;;;;;1.80;94.70;;;;;;5089027;28;19918;-74
2023/03/01 10:47:44;;;;;;;;;;;1.90;94.70;;;;;;5089685;28;19918;-73
2023/03/01 10:50:28;;;;;;;;;;;1.90;94.70;;;;;;5109979;28;19912;-74
2023/03/01 10:52:58;;;;;;;;;;;1.90;94.70;;;;;;5110421;28;19915;-74
2023/03/01 10:55:42;;;;;;;;;;;2.00;94.70;;;;;;5094520;28;19923;-74
2023/03/01 10:58:07;;;;;;;;;;;2.00;94.70;;;;;;5089888;28;19942;-74
2023/03/01 11:00:33;;;;;;;;;;;2.00;94.80;;;;;;5089797;28;19920;-74
2023/03/01 11:02:58;;;;;;;;;;;2.10;95.00;;;;;;5090145;28;19912;-73
2023/03/01 11:05:25;;;;;;;;;;;2.10;94.80;;;;;;5090008;28;20681;-74
2023/03/01 11:07:56;;;;;;;;;;;2.20;94.80;;;;;;5090103;28;19912;-73
2023/03/01 11:10:21;;;;;;;;;;;2.20;94.70;;;;;;5089367;28;19913;-74
2023/03/01 11:12:47;;;;;;;;;;;2.30;94.70;;;;;;5090214;28;19912;-74
2023/03/01 11:15:31;;;;;;;;;;;2.40;94.70;;;;;;5089895;28;19916;-73
2023/03/01 11:17:56;;;;;;;;;;;2.40;94.60;;;;;;5089724;28;19924;-73
2023/03/01 11:20:26;;;;;;;;;;;2.50;94.50;;;;;;5089495;28;19908;-74
2023/03/01 11:22:53;;;;;;;;;;;2.60;94.40;;;;;;5089435;28;19912;-74
2023/03/01 11:25:20;;;;;;;;;;;2.60;94.30;;;;;;5090548;28;19916;-74
2023/03/01 11:27:46;;;;;;;;;;;2.70;94.30;;;;;;5089335;28;19935;-74
2023/03/01 11:30:26;;;;;;;;;;;2.80;94.30;;;;;;5088082;28;19955;-74
2023/03/01 11:33:00;;;;;;;;;;;2.90;94.20;;;;;;5089479;28;20538;-74
2023/03/01 11:35:27;;;;;;;;;;;2.90;94.50;;;;;;5083385;28;19923;-75
2023/03/01 11:37:58;;;;;;;;;;;3.00;94.10;;;;;;5089031;28;20006;-75
2023/03/01 11:43:45;;;;;;;;;;;3.10;94.10;;;;;;5090159;28;20443;-75
2023/03/01 11:49:34;;;;;;;;;;;3.30;94.00;;;;;;5065362;28;19963;-75
2023/03/01 11:52:15;;;;;;;;;;;3.40;94.00;;;;;;5055841;28;19913;-75
2023/03/01 11:54:58;;;;;;;;;;;3.50;93.80;;;;;;5045561;28;19959;-74
2023/03/01 11:57:36;;;;;;;;;;;3.60;93.80;;;;;;5056807;28;19969;-75
2023/03/01 12:00:23;;;;;;;;;;;3.70;93.80;;;;;;5053793;28;19919;-75
2023/03/01 12:03:11;;;;;;;;;;;3.80;93.70;;;;;;5061470;28;19920;-75
2023/03/01 12:06:03;;;;;;;;;;;3.90;93.70;;;;;;5048700;28;19916;-75
2023/03/01 12:08:47;;;;;;;;;;;4.00;93.60;;;;;;5060712;28;19920;-75
2023/03/01 12:11:31;;;;;;;;;;;4.10;93.60;;;;;;5062503;28;19912;-75
2023/03/01 12:14:06;;;;;;;;;;;4.10;93.40;;;;;;5080787;28;19913;-75
2023/03/01 12:16:53;;;;;;;;;;;4.20;93.40;;;;;;5083286;28;19993;-75
2023/03/01 12:19:49;;;;;;;;;;;4.30;93.40;;;;;;5087348;28;20044;-75
2023/03/01 12:22:43;;;;;;;;;;;4.30;93.20;;;;;;5082314;28;20527;-74
2023/03/01 12:25:27;;;;;;;;;;;4.40;93.40;;;;;;5078990;28;19923;-75
2023/03/01 12:27:53;;;;;;;;;;;4.50;94.30;;;;;;5087110;28;19986;-75
2023/03/01 12:30:43;;;;;;;;;;;4.60;94.10;;;;;;5086381;28;19908;-75
2023/03/01 12:36:12;;;;;;;;;;;4.70;93.90;;;;;;5089294;28;20027;-75
2023/03/01 12:38:59;;;;;;;;;;;4.80;93.70;;;;;;5087259;28;19967;-75
2023/03/01 12:41:49;;;;;;;;;;;4.80;93.80;;;;;;5084858;28;19972;-75
2023/03/01 12:47:44;;;;;;;;;;;5.00;94.10;;;;;;5069623;28;19912;-76
2023/03/01 12:50:29;;;;;;;;;;;5.00;93.40;;;;;;5072796;28;19913;-76
2023/03/01 12:53:01;;;;;;;;;;;5.00;93.20;;;;;;5070535;28;19919;-76
2023/03/01 12:56:05;;;;;;;;;;;5.10;93.50;;;;;;5071893;28;19987;-77
2023/03/01 13:01:52;;;;;;;;;;;5.20;93.20;;;;;;5027344;28;20053;-79
2023/03/01 13:07:49;;;;;;;;;;;5.30;94.10;;;;;;5060237;28;19951;-81
2023/03/01 13:10:34;;;;;;;;;;;5.40;94.60;;;;;;5082336;28;19963;-78
2023/03/01 13:13:18;;;;;;;;;;;5.40;94.90;;;;;;5079950;28;19926;-76
2023/03/01 13:16:21;;;;;;;;;;;5.50;94.90;;;;;;5083943;28;20345;-74
2023/03/01 13:19:20;;;;;;;;;;;5.50;94.40;;;;;;5098244;28;19977;-75
2023/03/01 13:21:57;;;;;;;;;;;5.50;93.70;;;;;;5088571;28;21456;-74
2023/03/01 13:24:47;;;;;;;;;;;5.60;94.90;;;;;;5085453;28;19922;-75
2023/03/01 13:27:24;;;;;;;;;;;5.60;95.30;;;;;;5085573;28;19916;-74
2023/03/01 13:29:54;;;;;;;;;;;5.60;95.30;;;;;;5083444;28;20423;-75
2023/03/01 13:32:33;;;;;;;;;;;5.70;95.10;;;;;;5086597;28;20425;-76
2023/03/01 13:35:14;;;;;;;;;;;5.70;95.40;;;;;;5086121;28;20090;-73
2023/03/01 13:38:15;;;;;;;;;;;5.70;94.30;;;;;;5085424;28;19969;-75
2023/03/01 13:40:59;;;;;;;;;;;5.70;94.70;;;;;;5083999;28;19943;-75
2023/03/01 13:43:42;;;;;;;;;;;5.80;94.50;;;;;;5082429;28;19916;-73
2023/03/01 13:46:43;;;;;;;;;;;5.90;93.80;;;;;;5076895;28;19912;-76
2023/03/01 13:49:21;;;;;;;;;;;6.00;93.10;;;;;;5058782;28;19981;-75
2023/03/01 13:54:48;;;;;;;;;;;6.20;91.80;;;;;;5051172;28;20298;-76
2023/03/01 13:57:21;;;;;;;;;;;6.50;91.90;;;;;;5043877;28;19913;-76
2023/03/01 13:59:52;;;;;;;;;;;6.40;92.20;;;;;;5039723;28;19920;-76
2023/03/01 14:05:58;;;;;;;;;;;6.30;93.20;;;;;;5020356;28;19955;-74
2023/03/01 14:08:46;;;;;;;;;;;6.20;94.10;;;;;;5021675;28;20777;-75
2023/03/01 14:11:33;;;;;;;;;;;6.20;93.80;;;;;;5018673;28;20051;-75
2023/03/01 14:14:11;;;;;;;;;;;6.20;92.80;;;;;;5021126;28;19920;-75
2023/03/01 14:17:10;;;;;;;;;;;6.20;93.30;;;;;;5034016;28;19920;-75
2023/03/01 14:19:36;;;;;;;;;;;6.20;94.00;;;;;;5062440;28;20629;-75
2023/03/01 14:25:26;;;;;;;;;;;6.20;94.80;;;;;;5063565;28;19924;-76
2023/03/01 14:28:00;;;;;;;;;;;6.20;95.00;;;;;;5065801;28;20125;-75
2023/03/01 14:30:29;;;;;;;;;;;6.20;95.20;;;;;;5065669;28;19909;-75
2023/03/01 14:36:53;;;;;;;;;;;6.20;95.70;;;;;;5024379;28;20322;-75
2023/03/01 14:39:42;;;;;;;;;;;6.10;95.80;;;;;;5013129;28;19991;-75
2023/03/01 14:42:11;;;;;;;;;;;6.10;95.70;;;;;;5015780;28;19913;-75
2023/03/01 14:50:56;;;;;;;;;;;6.20;96.20;;;;;;4989987;28;20428;-75
2023/03/01 14:53:31;;;;;;;;;;;6.10;96.40;;;;;;5086121;28;19919;-75
2023/03/01 14:56:09;;;;;;;;;;;6.20;96.50;;;;;;5088317;28;20361;-75
2023/03/01 14:59:06;;;;;;;;;;;6.10;96.40;;;;;;5087675;28;20387;-75
2023/03/01 15:01:35;;;;;;;;;;;6.10;96.70;;;;;;5087427;28;19950;-76
2023/03/01 15:04:33;;;;;;;;;;;6.10;96.60;;;;;;5085730;28;20577;-76
2023/03/01 15:07:04;;;;;;;;;;;6.10;96.80;;;;;;5054468;28;19970;-75
2023/03/01 15:09:32;;;;;;;;;;;6.10;96.70;;;;;;5058570;28;19999;-76
2023/03/01 15:11:57;;;;;;;;;;;6.10;96.30;;;;;;5063335;28;19966;-76
2023/03/01 15:14:52;;;;;;;;;;;6.10;96.70;;;;;;5053106;28;19921;-76
2023/03/01 15:17:42;;;;;;;;;;;6.10;96.80;;;;;;5076164;28;20381;-76
2023/03/01 15:21:03;;;;;;;;;;;6.10;96.90;;;;;;5092975;28;21066;-75
2023/03/01 15:23:36;;;;;;;;;;;6.00;96.80;;;;;;5060504;28;19928;-75
2023/03/01 15:26:22;;;;;;;;;;;6.00;96.60;;;;;;5036464;28;19913;-75
2023/03/01 15:28:51;;;;;;;;;;;6.00;96.40;;;;;;5055238;28;19999;-75
2023/03/01 15:35:01;;;;;;;;;;;5.90;96.50;;;;;;5010496;28;19917;-75